Terminal Aerodrome Forecast
Issued by NWS

Home | Current Version | Previous Version | Text Only | Print | Product List | Glossary On
Versions: 1 2 3 4 5 6 7 8 9 10 11 12 13 14 15 16
000
FTUS44 KCRP 241700
TAFALI
TAF
KALI 241736Z 2418/2518 09009KT P6SM FEW050
     FM241900 12008KT P6SM VCTS SCT050CB SCT250
      TEMPO 2419/2423 3SM TSRA BR BKN035CB
     FM250000 VRB03KT P6SM FEW012 SCT250
      TEMPO 2511/2514 6SM BR
     FM251500 VRB06KT P6SM SCT035=

USA.gov is the U.S. government's official web portal to all federal, state and local government web resources and services.